Time;durP1;ratioP1;P1;durP2;ratioP2;P2;SDS_P1;SDS_P2;PMS_P1;PMS_P2;Temp;Humidity;BMP_temperature;BMP_pressure;BME280_temperature;BME280_humidity;BME280_pressure;Samples;Min_cycle;Max_cycle;Signal;HPM_P1;HPM_P2
2022/01/23 00:01:34;;;;;;;7.13;5.37;;;4.80;1.00;;;;;;5092573;28;20440;-65
2022/01/23 00:04:00;;;;;;;9.30;6.53;;;5.00;1.00;;;;;;5091676;28;20448;-65
2022/01/23 00:06:27;;;;;;;9.53;5.20;;;5.00;1.00;;;;;;5092842;28;20743;-65
2022/01/23 00:08:56;;;;;;;8.77;5.07;;;5.00;1.00;;;;;;5091741;28;20531;-65
2022/01/23 00:11:26;;;;;;;7.77;5.37;;;5.00;1.00;;;;;;5092747;28;20871;-65
2022/01/23 00:19:21;;;;;;;7.53;5.20;;;5.00;1.00;;;;;;5092586;28;20951;-65
2022/01/23 00:21:52;;;;;;;9.93;5.77;;;5.00;1.00;;;;;;5091665;28;20485;-65
2022/01/23 00:32:33;;;;;;;7.47;5.27;;;5.00;1.00;;;;;;5092344;28;20431;-66
2022/01/23 00:35:00;;;;;;;10.70;5.30;;;4.70;1.00;;;;;;5092007;28;20924;-66
2022/01/23 00:37:27;;;;;;;6.77;5.53;;;4.90;1.00;;;;;;5092241;28;20974;-65
2022/01/23 00:39:55;;;;;;;6.83;5.27;;;4.90;1.00;;;;;;5091381;28;20535;-65
2022/01/23 00:42:22;;;;;;;8.47;5.63;;;5.00;1.00;;;;;;5091340;28;20486;-66
2022/01/23 00:44:56;;;;;;;8.17;5.87;;;4.90;1.00;;;;;;5091274;28;20447;-65
2022/01/23 00:47:23;;;;;;;8.10;5.37;;;4.80;1.00;;;;;;5091740;28;21047;-66
2022/01/23 00:49:50;;;;;;;7.83;5.73;;;4.90;1.00;;;;;;5090980;28;20932;-65
2022/01/23 00:52:18;;;;;;;10.33;6.63;;;5.00;1.00;;;;;;5091724;28;20487;-65
2022/01/23 00:54:45;;;;;;;8.90;5.40;;;4.90;1.00;;;;;;5091673;28;20448;-65
2022/01/23 00:57:13;;;;;;;8.43;5.33;;;4.80;1.00;;;;;;5091562;28;20472;-65
2022/01/23 00:59:40;;;;;;;7.63;5.37;;;4.80;1.00;;;;;;5091589;28;21012;-65
2022/01/23 01:02:07;;;;;;;9.10;5.97;;;4.80;1.00;;;;;;5089877;28;20512;-65
2022/01/23 01:04:34;;;;;;;10.40;5.93;;;4.90;1.00;;;;;;5091598;28;20448;-65
2022/01/23 01:07:01;;;;;;;10.60;6.30;;;4.90;1.00;;;;;;5090688;28;20453;-65
2022/01/23 01:09:30;;;;;;;9.37;6.10;;;4.70;1.00;;;;;;5091934;28;20547;-65
2022/01/23 01:12:03;;;;;;;9.47;6.20;;;4.70;21.50;;;;;;5091043;28;20959;-65
2022/01/23 01:15:01;;;;;;;11.20;6.60;;;4.80;86.30;;;;;;5091567;28;20444;-65
2022/01/23 01:17:40;;;;;;;10.50;6.47;;;5.00;1.00;;;;;;5091619;28;20452;-65
2022/01/23 01:31:11;;;;;;;11.23;6.37;;;4.80;1.00;;;;;;5090634;28;20486;-65
2022/01/23 01:33:45;;;;;;;10.00;6.63;;;4.80;1.00;;;;;;5090646;28;20531;-65
2022/01/23 01:36:24;;;;;;;7.73;5.00;;;4.80;1.00;;;;;;5091139;28;20447;-65
2022/01/23 01:38:52;;;;;;;10.63;6.27;;;4.90;1.00;;;;;;5090033;28;20534;-65
2022/01/23 01:41:19;;;;;;;11.93;6.30;;;4.90;1.00;;;;;;5091065;28;20804;-65
2022/01/23 01:43:47;;;;;;;8.17;4.90;;;5.00;1.00;;;;;;5090263;28;20830;-65
2022/01/23 01:46:16;;;;;;;8.50;5.70;;;4.90;1.00;;;;;;5091211;28;20527;-65
2022/01/23 01:48:43;;;;;;;8.57;5.60;;;4.80;1.00;;;;;;5090828;28;20936;-65
2022/01/23 01:51:14;;;;;;;9.47;5.67;;;4.90;1.00;;;;;;5090299;28;20547;-66
2022/01/23 01:53:47;;;;;;;8.37;5.50;;;4.90;1.00;;;;;;5090841;28;20444;-65
2022/01/23 01:56:13;;;;;;;8.00;5.53;;;5.00;1.00;;;;;;5090962;28;20826;-66
2022/01/23 01:59:15;;;;;;;11.77;6.90;;;5.10;1.00;;;;;;5090939;28;20536;-65
2022/01/23 02:09:57;;;;;;;11.10;6.60;;;5.00;1.00;;;;;;5089857;28;21266;-65
2022/01/23 02:12:57;;;;;;;9.40;6.47;;;5.00;1.00;;;;;;5090365;28;20535;-65
2022/01/23 02:18:22;;;;;;;9.03;6.33;;;5.10;1.00;;;;;;5093651;28;20509;-66
2022/01/23 02:23:59;;;;;;;8.07;5.67;;;5.20;1.00;;;;;;5079604;28;20521;-66
2022/01/23 02:51:37;;;;;;;8.97;6.83;;;5.20;1.00;;;;;;5087167;28;20424;-65
2022/01/23 02:54:22;;;;;;;7.87;5.00;;;5.00;1.00;;;;;;5090293;28;21094;-67
2022/01/23 02:56:52;;;;;;;7.27;5.40;;;5.10;29.00;;;;;;5088973;28;20511;-68
2022/01/23 02:59:24;;;;;;;9.10;5.90;;;5.20;1.00;;;;;;5082269;28;20464;-67
2022/01/23 03:02:08;;;;;;;6.63;5.03;;;5.00;1.00;;;;;;5087830;28;20451;-66
2022/01/23 03:04:38;;;;;;;10.63;6.30;;;5.00;79.30;;;;;;5081188;28;20564;-66
2022/01/23 03:07:31;;;;;;;11.07;6.27;;;5.20;44.60;;;;;;5090618;28;21076;-67
2022/01/23 03:10:03;;;;;;;7.70;5.30;;;5.10;1.00;;;;;;5083611;28;20465;-67
2022/01/23 03:15:33;;;;;;;10.97;6.50;;;5.10;66.00;;;;;;5084203;28;20512;-66
2022/01/23 03:26:25;;;;;;;11.23;7.10;;;4.90;99.90;;;;;;5082646;28;20451;-65
2022/01/23 03:29:20;;;;;;;14.77;7.93;;;4.80;99.90;;;;;;5078206;28;20869;-66
2022/01/23 03:32:01;;;;;;;26.13;15.80;;;4.70;99.90;;;;;;5084933;28;20472;-64
2022/01/23 03:34:28;;;;;;;9.37;6.50;;;4.80;99.90;;;;;;5080316;28;20536;-66
2022/01/23 03:36:56;;;;;;;9.10;5.80;;;5.00;99.90;;;;;;5072462;28;21335;-66
2022/01/23 03:39:24;;;;;;;10.70;6.20;;;5.00;99.90;;;;;;5085472;28;20448;-67
2022/01/23 03:41:53;;;;;;;11.57;7.50;;;5.10;99.90;;;;;;5088887;28;20987;-67
2022/01/23 03:44:22;;;;;;;9.30;5.70;;;5.20;69.20;;;;;;5089553;28;20559;-67
2022/01/23 03:47:01;;;;;;;7.57;4.87;;;5.10;80.70;;;;;;5087686;28;20502;-66
2022/01/23 03:49:31;;;;;;;9.23;6.10;;;5.10;96.20;;;;;;5085967;28;20472;-68
2022/01/23 03:51:59;;;;;;;6.60;4.80;;;5.00;94.90;;;;;;5081195;28;20441;-69
2022/01/23 03:54:27;;;;;;;9.33;5.60;;;5.00;99.90;;;;;;5089159;28;20876;-68
2022/01/23 03:56:56;;;;;;;9.80;6.47;;;4.90;99.90;;;;;;5089489;28;20565;-68
2022/01/23 03:59:23;;;;;;;15.50;6.43;;;5.00;99.90;;;;;;5083617;28;20953;-67
2022/01/23 04:01:50;;;;;;;8.50;5.47;;;5.00;99.90;;;;;;5080331;28;20940;-66
2022/01/23 04:04:30;;;;;;;12.77;6.27;;;5.10;99.90;;;;;;5080947;28;20504;-65
2022/01/23 04:06:57;;;;;;;8.77;5.07;;;5.20;83.20;;;;;;5079550;28;20446;-65
2022/01/23 04:09:23;;;;;;;10.03;6.30;;;5.10;99.90;;;;;;5074784;28;20541;-66
2022/01/23 04:11:51;;;;;;;12.90;7.00;;;5.20;99.90;;;;;;5075778;28;20821;-65
2022/01/23 04:14:22;;;;;;;11.53;7.07;;;5.10;84.10;;;;;;5087820;28;20452;-64
2022/01/23 04:17:15;;;;;;;10.50;6.50;;;5.10;99.90;;;;;;5088850;28;20444;-65
2022/01/23 04:19:57;;;;;;;10.60;6.03;;;5.10;99.90;;;;;;5086814;28;20463;-66
2022/01/23 04:33:43;;;;;;;8.60;5.33;;;5.00;99.90;;;;;;5088927;28;20452;-67
2022/01/23 05:00:52;;;;;;;8.73;6.20;;;4.70;99.90;;;;;;5088063;28;20446;-69
2022/01/23 05:06:05;;;;;;;8.27;5.43;;;4.80;99.90;;;;;;5079329;28;20440;-68
2022/01/23 05:08:35;;;;;;;10.80;6.63;;;4.70;99.90;;;;;;5088727;28;20510;-70
2022/01/23 05:11:02;;;;;;;9.20;5.10;;;4.70;99.90;;;;;;5087543;28;20480;-68
2022/01/23 05:13:31;;;;;;;11.13;5.93;;;4.70;99.90;;;;;;5088471;28;21249;-69
2022/01/23 05:15:58;;;;;;;11.10;6.53;;;4.60;99.90;;;;;;5088138;28;20472;-69
2022/01/23 05:18:26;;;;;;;8.07;5.30;;;4.50;99.90;;;;;;5089222;28;20535;-69
2022/01/23 05:21:03;;;;;;;8.43;5.60;;;4.50;99.90;;;;;;5087574;28;20527;-70
2022/01/23 05:23:30;;;;;;;10.40;5.50;;;4.50;99.90;;;;;;5088345;28;20471;-70
2022/01/23 05:25:56;;;;;;;11.70;6.47;;;4.60;99.90;;;;;;5087860;28;20448;-68
2022/01/23 05:28:23;;;;;;;9.40;6.10;;;4.80;99.90;;;;;;5073437;28;20532;-70
2022/01/23 05:30:50;;;;;;;8.60;6.10;;;4.70;99.90;;;;;;5088248;28;20559;-68
2022/01/23 05:33:17;;;;;;;9.43;6.37;;;4.60;99.90;;;;;;5088589;28;20463;-67
2022/01/23 05:35:45;;;;;;;10.87;6.00;;;4.80;99.90;;;;;;5088616;28;20536;-67
2022/01/23 05:38:12;;;;;;;10.80;7.10;;;4.80;99.90;;;;;;5083189;28;20532;-70
2022/01/23 05:40:40;;;;;;;9.90;6.67;;;4.90;99.90;;;;;;5083643;28;20527;-67
2022/01/23 05:43:07;;;;;;;11.40;5.90;;;4.90;99.90;;;;;;5082619;28;20478;-69
2022/01/23 05:45:37;;;;;;;11.90;6.27;;;4.80;99.90;;;;;;5084513;28;20448;-69
2022/01/23 05:48:05;;;;;;;9.13;6.37;;;4.80;99.90;;;;;;5087849;28;20521;-70
2022/01/23 05:50:32;;;;;;;12.67;7.40;;;4.90;99.90;;;;;;5088361;28;20460;-70
2022/01/23 05:53:00;;;;;;;9.90;7.40;;;;;;;;;;5087653;28;20455;-69
2022/01/23 05:55:28;;;;;;;14.23;6.53;;;;;;;;;;5086111;28;20456;-68
2022/01/23 05:57:55;;;;;;;11.83;6.97;;;;;;;;;;5087555;28;20479;-68
2022/01/23 06:00:23;;;;;;;10.77;7.03;;;;;;;;;;5087942;28;21025;-69
2022/01/23 06:02:50;;;;;;;12.27;6.87;;;;;;;;;;5087322;28;20453;-68
2022/01/23 06:05:17;;;;;;;9.23;6.17;;;;;;;;;;5088236;28;20871;-69
2022/01/23 06:07:46;;;;;;;11.80;7.90;;;;;;;;;;5087822;28;20453;-66
2022/01/23 06:10:21;;;;;;;9.13;6.27;;;;;;;;;;5088007;28;20452;-69
2022/01/23 06:12:49;;;;;;;14.10;6.57;;;;;;;;;;5087412;28;20960;-69
2022/01/23 06:15:16;;;;;;;9.20;5.07;;;;;;;;;;5088048;28;20496;-67
2022/01/23 06:17:44;;;;;;;8.60;5.80;;;;;;;;;;5088154;28;20453;-66
2022/01/23 06:20:13;;;;;;;9.53;6.63;;;;;;;;;;5085746;28;20564;-67
2022/01/23 06:22:42;;;;;;;10.43;6.20;;;;;;;;;;5083269;28;20472;-68
2022/01/23 06:25:12;;;;;;;9.17;6.50;;;;;;;;;;5086587;28;20488;-68
2022/01/23 06:27:40;;;;;;;9.50;6.90;;;;;;;;;;5073358;28;20465;-68
2022/01/23 06:30:08;;;;;;;10.73;5.93;;;;;;;;;;5084620;28;20436;-72
2022/01/23 06:32:36;;;;;;;11.37;7.67;;;;;;;;;;5088042;28;20452;-68
2022/01/23 06:35:03;;;;;;;10.40;7.17;;;;;;;;;;5087144;28;20532;-69
2022/01/23 06:37:30;;;;;;;11.83;7.13;;;;;;;;;;5087915;28;20445;-68
2022/01/23 06:39:57;;;;;;;7.77;6.30;;;;;;;;;;5085100;28;20563;-68
2022/01/23 06:42:24;;;;;;;10.47;7.10;;;;;;;;;;5087879;28;20476;-68
2022/01/23 06:44:53;;;;;;;12.87;7.30;;;;;;;;;;5084496;28;21000;-68
2022/01/23 06:47:20;;;;;;;11.00;6.33;;;;;;;;;;5078419;28;20445;-67
2022/01/23 06:49:47;;;;;;;9.83;7.20;;;;;;;;;;5073174;28;20457;-68
2022/01/23 06:52:14;;;;;;;11.00;7.07;;;;;;;;;;5087849;28;20466;-67
2022/01/23 06:54:42;;;;;;;11.43;7.07;;;;;;;;;;5084019;28;20456;-68
2022/01/23 06:57:09;;;;;;;10.77;7.17;;;;;;;;;;5087284;28;20829;-67
2022/01/23 06:59:36;;;;;;;12.13;7.17;;;;;;;;;;5084607;28;20552;-66
2022/01/23 07:02:05;;;;;;;11.50;7.20;;;;;;;;;;5090062;28;20555;-65
2022/01/23 07:04:33;;;;;;;11.50;7.47;;;;;;;;;;5091514;28;20507;-66
2022/01/23 07:07:00;;;;;;;14.97;9.70;;;;;;;;;;5087723;28;20456;-67
2022/01/23 07:09:27;;;;;;;10.43;7.57;;;;;;;;;;5091162;28;20809;-68
2022/01/23 07:11:55;;;;;;;14.40;9.47;;;;;;;;;;5091464;28;20867;-70
2022/01/23 07:14:22;;;;;;;13.13;8.50;;;;;;;;;;5093710;28;20862;-69
2022/01/23 07:16:49;;;;;;;30.23;20.67;;;;;;;;;;5088781;28;20456;-69
2022/01/23 07:19:17;;;;;;;15.90;8.80;;;;;;;;;;5081977;28;20445;-67
2022/01/23 07:21:45;;;;;;;11.20;7.30;;;;;;;;;;5092796;28;20959;-66
2022/01/23 07:24:12;;;;;;;11.77;7.70;;;;;;;;;;5093359;28;20511;-68
2022/01/23 07:26:39;;;;;;;10.73;7.37;;;;;;;;;;5092685;28;20963;-69
2022/01/23 07:29:07;;;;;;;20.97;10.13;;;;;;;;;;5092315;28;21086;-69
2022/01/23 07:31:56;;;;;;;15.50;9.10;;;;;;;;;;5093727;28;20448;-68
2022/01/23 07:34:26;;;;;;;14.00;8.63;;;;;;;;;;5093368;28;20449;-69
2022/01/23 07:36:53;;;;;;;13.47;8.13;;;;;;;;;;5092126;28;20538;-71
2022/01/23 07:39:20;;;;;;;16.63;9.83;;;;;;;;;;5093043;28;20451;-70
2022/01/23 07:41:47;;;;;;;14.50;8.07;;;;;;;;;;5090024;28;20452;-67
2022/01/23 07:44:14;;;;;;;12.07;8.20;;;;;;;;;;5077057;28;20477;-70
2022/01/23 07:46:41;;;;;;;15.97;10.47;;;;;;;;;;5083195;28;20783;-70
2022/01/23 07:49:09;;;;;;;14.23;7.60;;;;;;;;;;5092174;28;20535;-70
2022/01/23 07:51:37;;;;;;;11.83;6.63;;;;;;;;;;5092738;28;20798;-67
2022/01/23 07:54:05;;;;;;;14.40;9.13;;;;;;;;;;5092131;28;20571;-72
2022/01/23 07:56:32;;;;;;;11.87;7.87;;;;;;;;;;5092443;28;20480;-74
2022/01/23 07:58:59;;;;;;;10.40;7.70;;;;;;;;;;5092010;28;20479;-70
2022/01/23 08:01:27;;;;;;;12.37;7.47;;;;;;;;;;5092565;28;20445;-70
2022/01/23 08:03:54;;;;;;;11.57;7.27;;;;;;;;;;5091106;28;20492;-70
2022/01/23 08:06:21;;;;;;;22.20;16.10;;;;;;;;;;5092152;28;20929;-69
2022/01/23 08:08:50;;;;;;;12.10;7.97;;;;;;;;;;5091704;28;20498;-65
2022/01/23 08:11:17;;;;;;;14.83;9.27;;;;;;;;;;5091183;28;20445;-68
2022/01/23 08:13:44;;;;;;;12.93;8.43;;;;;;;;;;5091514;28;20527;-69
2022/01/23 08:16:11;;;;;;;11.57;7.60;;;;;;;;;;5091561;28;20455;-72
2022/01/23 08:18:38;;;;;;;18.80;8.33;;;;;;;;;;5091690;28;20444;-68
2022/01/23 08:21:07;;;;;;;10.17;7.87;;;;;;;;;;5091467;28;20932;-69
2022/01/23 08:23:38;;;;;;;15.40;11.07;;;;;;;;;;5092178;28;20445;-69
2022/01/23 08:26:06;;;;;;;17.93;7.90;;;;;;;;;;5091317;28;20511;-69
2022/01/23 08:28:33;;;;;;;15.03;7.83;;;;;;;;;;5088577;28;21077;-70
2022/01/23 08:31:00;;;;;;;11.23;7.83;;;;;;;;;;5091777;28;20960;-68
2022/01/23 08:33:28;;;;;;;10.40;7.30;;;;;;;;;;5090208;28;21286;-71
2022/01/23 08:35:57;;;;;;;14.87;9.00;;;;;;;;;;5091294;28;20441;-70
2022/01/23 08:38:24;;;;;;;15.10;8.47;;;;;;;;;;5089342;28;20970;-69
2022/01/23 08:41:49;;;;;;;16.90;9.40;;;;;;;;;;5090474;28;20564;-69
2022/01/23 08:43:49;;;;;;;14.63;8.23;;;;;;;;;;5089963;28;20830;-67
2022/01/23 08:46:17;;;;;;;12.80;9.17;;;;;;;;;;5091342;28;20531;-71
2022/01/23 08:48:44;;;;;;;12.27;8.53;;;;;;;;;;5091766;28;20536;-71
2022/01/23 08:51:11;;;;;;;15.77;10.57;;;;;;;;;;5091529;28;20444;-72
2022/01/23 08:53:38;;;;;;;11.47;8.30;;;;;;;;;;5090867;28;20440;-71
2022/01/23 08:56:06;;;;;;;23.73;14.50;;;;;;;;;;5089523;28;20540;-70
2022/01/23 08:58:33;;;;;;;12.97;8.60;;;;;;;;;;5085775;28;20914;-69
2022/01/23 09:01:01;;;;;;;12.30;9.30;;;;;;;;;;5075545;28;20559;-69
2022/01/23 09:03:28;;;;;;;16.97;9.17;;;;;;;;;;5083261;28;20506;-69
2022/01/23 09:05:56;;;;;;;12.80;9.00;;;;;;;;;;5090455;28;20571;-68
2022/01/23 09:08:23;;;;;;;14.07;9.30;;;;;;;;;;5090293;28;20532;-68
2022/01/23 09:10:56;;;;;;;18.60;11.23;;;;;;;;;;5090208;28;20531;-69
2022/01/23 09:13:51;;;;;;;17.70;11.10;;;;;;;;;;5091064;28;20519;-68
2022/01/23 09:16:19;;;;;;;18.30;11.00;;;;;;;;;;5081493;28;20502;-67
2022/01/23 09:18:47;;;;;;;21.87;12.70;;;;;;;;;;5078694;28;21018;-66
2022/01/23 09:21:14;;;;;;;18.50;12.37;;;;;;;;;;5088890;28;20467;-68
2022/01/23 09:23:41;;;;;;;22.63;13.60;;;;;;;;;;5084698;28;20543;-67
2022/01/23 09:26:13;;;;;;;20.80;12.53;;;;;;;;;;5085964;28;20492;-67
2022/01/23 09:28:43;;;;;;;22.10;13.00;;;;;;;;;;5083887;28;20445;-67
2022/01/23 09:31:12;;;;;;;26.63;14.63;;;;;;;;;;5087843;28;20559;-74
2022/01/23 09:33:41;;;;;;;18.33;12.80;;;;;;;;;;5084503;28;20444;-71
2022/01/23 09:36:08;;;;;;;20.47;13.23;;;;;;;;;;5085041;28;20452;-69
2022/01/23 09:38:36;;;;;;;21.67;13.20;;;;;;;;;;5088206;28;20517;-70
2022/01/23 09:41:03;;;;;;;22.07;14.00;;;;;;;;;;5082850;28;20964;-69
2022/01/23 09:43:31;;;;;;;19.07;12.10;;;;;;;;;;5088080;28;20535;-68
2022/01/23 09:46:05;;;;;;;24.37;13.87;;;;;;;;;;5087870;28;20510;-69
2022/01/23 09:48:33;;;;;;;18.63;12.47;;;;;;;;;;5088065;28;20476;-70
2022/01/23 09:51:01;;;;;;;16.63;13.07;;;;;;;;;;5087415;28;20445;-70
2022/01/23 09:53:30;;;;;;;17.60;12.03;;;;;;;;;;5087769;28;20453;-69
2022/01/23 09:56:03;;;;;;;17.27;11.10;;;;;;;;;;5087170;28;20583;-70
2022/01/23 09:58:31;;;;;;;17.60;11.00;;;;;;;;;;5088497;28;20915;-70
2022/01/23 10:00:59;;;;;;;17.77;10.10;;;;;;;;;;5088438;28;21015;-69
2022/01/23 10:03:26;;;;;;;20.20;12.00;;;;;;;;;;5083681;28;20472;-70
2022/01/23 10:05:54;;;;;;;14.67;9.33;;;;;;;;;;5090881;28;20495;-69
2022/01/23 10:08:23;;;;;;;16.67;10.90;;;;;;;;;;5084212;28;21023;-70
2022/01/23 10:10:53;;;;;;;13.83;8.80;;;;;;;;;;5086724;28;20963;-70
2022/01/23 10:13:22;;;;;;;14.67;9.90;;;;;;;;;;5081377;28;20449;-72
2022/01/23 10:15:49;;;;;;;15.33;10.90;;;;;;;;;;5087176;28;20463;-68
2022/01/23 10:18:17;;;;;;;16.00;11.47;;;;;;;;;;5087476;28;20459;-68
2022/01/23 10:20:46;;;;;;;16.47;10.93;;;;;;;;;;5088373;28;20487;-69
2022/01/23 10:23:13;;;;;;;16.13;10.37;;;;;;;;;;5082342;28;20450;-69
2022/01/23 10:25:43;;;;;;;16.80;11.90;;;;;;;;;;5087442;28;20592;-71
2022/01/23 10:28:10;;;;;;;19.43;13.27;;;;;;;;;;5086872;28;21196;-73
2022/01/23 10:30:40;;;;;;;13.50;9.90;;;;;;;;;;5087477;28;20451;-72
2022/01/23 10:33:10;;;;;;;16.47;10.53;;;;;;;;;;5081258;28;21367;-70
2022/01/23 10:35:52;;;;;;;19.43;12.37;;;;;;;;;;5079992;28;20456;-75
2022/01/23 10:38:20;;;;;;;19.60;12.00;;;;;;;;;;5092791;28;20448;-75
2022/01/23 10:40:52;;;;;;;17.13;11.00;;;;;;;;;;5090570;28;20457;-76
2022/01/23 10:48:49;;;;;;;16.47;10.23;;;;;;;;;;5091751;28;20954;-67
2022/01/23 10:51:17;;;;;;;16.80;10.50;;;;;;;;;;5083430;28;20480;-74
2022/01/23 10:54:02;;;;;;;13.87;10.60;;;;;;;;;;5085804;28;20449;-71
2022/01/23 10:56:31;;;;;;;15.17;10.20;;;;;;;;;;5091101;28;20480;-75
2022/01/23 10:58:59;;;;;;;14.03;9.53;;;;;;;;;;5079320;28;20537;-73
2022/01/23 11:01:28;;;;;;;12.87;8.00;;;;;;;;;;5080018;28;20444;-73
2022/01/23 11:04:06;;;;;;;12.57;8.77;;;;;;;;;;5090057;28;20452;-75
2022/01/23 11:06:33;;;;;;;13.90;9.30;;;;;;;;;;5080103;28;20504;-70
2022/01/23 11:09:10;;;;;;;15.00;9.87;;;;;;;;;;5091002;28;20448;-74
2022/01/23 11:11:45;;;;;;;13.70;8.40;;;;;;;;;;5088514;28;20452;-72
2022/01/23 11:19:46;;;;;;;12.10;7.80;;;;;;;;;;5087092;28;20436;-67
2022/01/23 11:22:17;;;;;;;11.37;7.87;;;;;;;;;;5075244;28;20531;-71
2022/01/23 11:24:47;;;;;;;10.47;8.03;;;;;;;;;;5084715;28;20448;-69
2022/01/23 11:27:16;;;;;;;13.10;8.20;;;;;;;;;;5091299;28;20897;-69
2022/01/23 11:29:54;;;;;;;12.80;8.97;;;;;;;;;;5085844;28;20456;-68
2022/01/23 11:32:22;;;;;;;12.00;7.87;;;;;;;;;;5090260;28;20451;-68
2022/01/23 11:34:49;;;;;;;11.77;8.70;;;;;;;;;;5090588;28;20513;-68
2022/01/23 11:37:18;;;;;;;11.40;8.00;;;;;;;;;;5087986;28;20528;-68
2022/01/23 11:39:49;;;;;;;13.50;8.87;;;;;;;;;;5088110;28;20484;-67
2022/01/23 11:51:02;;;;;;;16.40;9.13;;;;;;;;;;5083952;28;20464;-69
2022/01/23 11:53:50;;;;;;;15.20;10.17;;;;;;;;;;5075885;28;20444;-71
2022/01/23 11:56:36;;;;;;;15.97;9.57;;;;;;;;;;5082581;28;20485;-69
2022/01/23 11:59:17;;;;;;;12.10;8.40;;;;;;;;;;5085037;28;20432;-69
2022/01/23 12:01:45;;;;;;;13.33;9.13;;;;;;;;;;5090384;28;20445;-69
2022/01/23 12:04:17;;;;;;;14.70;7.63;;;;;;;;;;5089774;28;20467;-69
2022/01/23 12:06:45;;;;;;;11.27;9.37;;;;;;;;;;5090199;28;20480;-72
2022/01/23 12:09:20;;;;;;;14.13;8.53;;;;;;;;;;5091028;28;20460;-72
2022/01/23 12:12:02;;;;;;;14.20;9.30;;;;;;;;;;5089432;28;20448;-69
2022/01/23 12:17:24;;;;;;;13.50;7.70;;;;;;;;;;5089303;28;20432;-69
2022/01/23 12:19:52;;;;;;;10.80;8.30;;;;;;;;;;5085248;28;20493;-68
2022/01/23 12:22:39;;;;;;;10.90;7.87;;;;;;;;;;5077079;28;20852;-72
2022/01/23 12:25:12;;;;;;;10.10;8.30;;;;;;;;;;5074266;28;20488;-72
2022/01/23 12:27:39;;;;;;;11.77;7.63;;;;;;;;;;5082008;28;20512;-70
2022/01/23 12:30:40;;;;;;;15.23;10.23;;;;;;;;;;5086868;28;20445;-69
2022/01/23 12:33:19;;;;;;;10.17;7.77;;;;;;;;;;5088860;28;21032;-68
2022/01/23 12:35:48;;;;;;;10.37;6.80;;;;;;;;;;5089308;28;20805;-66
2022/01/23 12:38:15;;;;;;;12.17;7.80;;;;;;;;;;5089429;28;20547;-69
2022/01/23 12:40:46;;;;;;;11.90;8.73;;;;;;;;;;5087291;28;20451;-69
2022/01/23 12:43:15;;;;;;;15.20;8.93;;;;;;;;;;5089763;28;20443;-69
2022/01/23 12:45:52;;;;;;;10.77;8.07;;;;;;;;;;5091091;28;20488;-70
2022/01/23 12:48:38;;;;;;;10.77;7.90;;;;;;;;;;5090876;28;20936;-69
2022/01/23 12:51:07;;;;;;;12.40;7.70;;;;;;;;;;5101795;28;20740;-66
2022/01/23 12:53:38;;;;;;;9.87;7.10;;;;;;;;;;5092612;28;20544;-69
2022/01/23 12:56:06;;;;;;;9.83;6.93;;;;;;;;;;5088686;28;20955;-68
2022/01/23 12:58:34;;;;;;;9.07;6.30;;;;;;;;;;5088571;28;20496;-71
2022/01/23 13:01:01;;;;;;;9.67;6.57;;;;;;;;;;5075190;28;20532;-69
2022/01/23 13:03:28;;;;;;;9.63;7.57;;;;;;;;;;5076622;28;20449;-69
2022/01/23 13:05:56;;;;;;;12.90;6.43;;;;;;;;;;5087839;28;20512;-69
2022/01/23 13:08:28;;;;;;;10.50;6.50;;;;;;;;;;5080293;28;20464;-69
2022/01/23 13:11:20;;;;;;;7.27;4.63;;;;;;;;;;5075295;28;20455;-69
2022/01/23 13:13:58;;;;;;;5.10;4.40;;;;;;;;;;5088596;28;20921;-66
2022/01/23 13:16:34;;;;;;;6.87;4.50;;;;;;;;;;5081284;28;20484;-69
2022/01/23 13:28:37;;;;;;;7.40;5.37;;;;;;;;;;5053755;28;20491;-68
2022/01/23 13:30:50;;;;;;;9.10;5.90;;;;;;;;;;5078334;28;20448;-69
2022/01/23 13:33:21;;;;;;;8.23;5.47;;;;;;;;;;5088667;28;20480;-71
2022/01/23 13:35:51;;;;;;;5.57;4.20;;;;;;;;;;5087527;28;20458;-69
2022/01/23 13:38:19;;;;;;;6.50;5.00;;;;;;;;;;5083338;28;20484;-70
2022/01/23 13:40:57;;;;;;;6.73;5.03;;;;;;;;;;5086534;28;21116;-69
2022/01/23 13:51:58;;;;;;;9.47;6.33;;;;;;;;;;5077538;28;20425;-74
2022/01/23 14:00:00;;;;;;;9.50;5.03;;;;;;;;;;5087606;28;20428;-73
2022/01/23 14:02:28;;;;;;;6.97;4.40;;;;;;;;;;5088372;28;20806;-75
2022/01/23 14:04:57;;;;;;;4.87;3.60;;;;;;;;;;5087840;28;20441;-74
2022/01/23 14:07:25;;;;;;;5.93;4.30;;;;;;;;;;5087925;28;20537;-72
2022/01/23 14:09:53;;;;;;;12.00;4.30;;;;;;;;;;5075980;28;20812;-74
2022/01/23 14:12:23;;;;;;;5.50;4.20;;;;;;;;;;5072876;28;20525;-74
2022/01/23 14:14:51;;;;;;;6.30;4.33;;;;;;;;;;5087845;28;20487;-74
2022/01/23 14:17:19;;;;;;;7.80;3.80;;;;;;;;;;5088517;28;20532;-76
2022/01/23 14:19:59;;;;;;;6.83;3.47;;;;;;;;;;5087859;28;20451;-75
2022/01/23 14:22:30;;;;;;;4.80;3.73;;;;;;;;;;5075706;28;20474;-74
2022/01/23 14:25:21;;;;;;;11.70;4.13;;;;;;;;;;5085763;28;20445;-74
2022/01/23 14:28:02;;;;;;;4.13;3.20;;;;;;;;;;5047636;28;20924;-75
2022/01/23 14:30:30;;;;;;;5.77;3.60;;;;;;;;;;5075907;28;20459;-73
2022/01/23 14:33:05;;;;;;;5.17;3.40;;;;;;;;;;5087102;28;21077;-74
2022/01/23 14:35:34;;;;;;;4.30;3.27;;;;;;;;;;5087470;28;20455;-72
2022/01/23 14:38:09;;;;;;;4.83;3.93;;;;;;;;;;5087074;28;20445;-76
2022/01/23 14:40:36;;;;;;;5.10;3.50;;;;;;;;;;5086893;28;20530;-77
2022/01/23 14:43:07;;;;;;;6.13;3.03;;;;;;;;;;5087560;28;20453;-75
2022/01/23 14:45:36;;;;;;;4.00;2.83;;;;;;;;;;5087753;28;21195;-77
2022/01/23 14:48:04;;;;;;;2.53;2.30;;;;;;;;;;5087067;28;20436;-78
2022/01/23 14:50:33;;;;;;;3.37;2.63;;;;;;;;;;5087840;28;20437;-78
2022/01/23 14:53:06;;;;;;;3.30;2.70;;;;;;;;;;5074105;28;20501;-78
2022/01/23 14:55:34;;;;;;;4.27;2.83;;;;;;;;;;5085039;28;20448;-78
2022/01/23 14:58:02;;;;;;;3.60;2.97;;;;;;;;;;5087584;28;20964;-78
2022/01/23 15:00:31;;;;;;;5.53;3.40;;;;;;;;;;5087744;28;20448;-77
2022/01/23 15:02:58;;;;;;;5.53;3.00;;;;;;;;;;5087073;28;20560;-75
2022/01/23 15:05:25;;;;;;;4.00;3.20;;;;;;;;;;5084687;28;20446;-71
2022/01/23 15:07:53;;;;;;;5.50;3.40;;;;;;;;;;5087292;28;20575;-69
2022/01/23 15:10:21;;;;;;;4.07;3.10;;;;;;;;;;5080170;28;20467;-66
2022/01/23 15:12:48;;;;;;;4.33;3.13;;;;;;;;;;5080176;28;20880;-67
2022/01/23 15:15:15;;;;;;;3.70;2.80;;;;;;;;;;5079557;28;20479;-69
2022/01/23 15:17:44;;;;;;;4.50;2.97;;;;;;;;;;5069946;28;20548;-71
2022/01/23 15:20:12;;;;;;;4.13;2.53;;;;;;;;;;5080218;28;20489;-72
2022/01/23 15:22:39;;;;;;;4.17;2.77;;;;;;;;;;5080687;28;20540;-73
2022/01/23 15:25:09;;;;;;;4.00;2.67;;;;;;;;;;5080582;28;20618;-72
2022/01/23 15:27:36;;;;;;;5.60;3.87;;;;;;;;;;5091456;28;20892;-75
2022/01/23 15:30:04;;;;;;;11.23;4.17;;;;;;;;;;5088186;28;20459;-77
2022/01/23 15:32:31;;;;;;;6.53;3.03;;;;;;;;;;5072823;28;20491;-69
2022/01/23 15:35:00;;;;;;;5.10;3.07;;;;;;;;;;5098281;28;20500;-71
2022/01/23 15:37:27;;;;;;;4.23;3.50;;;;;;;;;;5106472;28;20444;-72
2022/01/23 15:39:54;;;;;;;4.90;3.40;;;;;;;;;;5099666;28;20846;-71
2022/01/23 15:42:21;;;;;;;4.80;2.90;;;;;;;;;;5092316;28;20472;-71
2022/01/23 15:44:48;;;;;;;4.50;2.87;;;;;;;;;;5093356;28;20535;-69
2022/01/23 15:47:16;;;;;;;3.00;2.50;;;;;;;;;;5094239;28;20844;-65
2022/01/23 15:49:43;;;;;;;5.50;3.30;;;;;;;;;;5090643;28;20510;-66
2022/01/23 15:52:12;;;;;;;4.10;3.20;;;;;;;;;;5087298;28;20451;-65
2022/01/23 15:54:39;;;;;;;4.83;3.50;;;;;;;;;;5089668;28;20448;-65
2022/01/23 15:57:07;;;;;;;7.20;4.30;;;;;;;;;;5079383;28;21003;-67
2022/01/23 15:59:36;;;;;;;4.50;3.70;;;;;;;;;;5083694;28;21150;-64
2022/01/23 16:02:03;;;;;;;5.67;3.47;;;;;;;;;;5081105;28;20454;-63
2022/01/23 16:04:33;;;;;;;3.93;3.00;;;;;;;;;;5092998;28;20483;-63
2022/01/23 16:07:01;;;;;;;3.37;2.90;;;;;;;;;;5082784;28;20477;-64
2022/01/23 16:09:29;;;;;;;6.50;3.97;;;;;;;;;;5087971;28;20484;-64
2022/01/23 16:11:56;;;;;;;5.23;3.30;;;;;;;;;;5088736;28;20922;-64
2022/01/23 16:14:24;;;;;;;4.37;3.13;;;;;;;;;;5091290;28;20447;-64
2022/01/23 16:16:51;;;;;;;6.37;4.87;;;;;;;;;;5088393;28;20529;-64
2022/01/23 16:19:19;;;;;;;5.07;3.70;;;;;;;;;;5091738;28;20459;-64
2022/01/23 16:21:47;;;;;;;3.60;3.10;;;;;;;;;;5090732;28;20448;-64
2022/01/23 16:24:14;;;;;;;7.17;3.70;;;;;;;;;;5083450;28;20484;-65
2022/01/23 16:26:43;;;;;;;7.50;3.83;;;;;;;;;;5082998;28;21067;-65
2022/01/23 16:29:11;;;;;;;4.80;3.40;;;;;;;;;;5087515;28;20478;-65
2022/01/23 16:31:38;;;;;;;6.13;4.00;;;;;;;;;;5081114;28;20449;-65
2022/01/23 16:34:05;;;;;;;4.50;3.13;;;;;;;;;;5089706;28;20984;-65
2022/01/23 16:36:33;;;;;;;6.57;4.13;;;;;;;;;;5082250;28;21047;-65
2022/01/23 16:39:00;;;;;;;6.70;3.00;;;;;;;;;;5086348;28;20455;-65
2022/01/23 16:41:28;;;;;;;7.23;3.43;;;;;;;;;;5086388;28;20567;-66
2022/01/23 16:43:57;;;;;;;4.50;3.57;;;;;;;;;;5090974;28;21013;-67
2022/01/23 16:46:24;;;;;;;10.73;4.40;;;;;;;;;;5082350;28;20499;-66
2022/01/23 16:48:51;;;;;;;5.17;2.90;;;;;;;;;;5088162;28;20452;-66
2022/01/23 16:51:18;;;;;;;4.43;3.07;;;;;;;;;;5087531;28;20529;-67
2022/01/23 16:53:46;;;;;;;7.47;4.30;;;;;;;;;;5084796;28;20455;-66
2022/01/23 16:56:17;;;;;;;3.83;3.03;;;;;;;;;;5091134;28;21637;-66
2022/01/23 16:58:44;;;;;;;5.00;3.27;;;;;;;;;;5091565;28;20467;-66
2022/01/23 17:01:13;;;;;;;5.77;3.77;;;;;;;;;;5086659;28;20476;-66